Eads, CO

9:46 AM MST on January 30, 2015 (GMT -0700)
Lamar Municipal | Change Station
CLOSE
Current Station
Airport
Location: Lamar,
Elevation: 3704 ft
Nearby Weather Stations

Elev 3704 ft 38.07 °N, 102.69 °W | Updated 53 minutes ago

Overcast
Overcast
42 °F
Feels Like 33 °F
N
20
Wind Variable Wind from SSW

Today
High -- | Low -- °F
--% Chance of Precip.
Yesterday
High -- | Low -- °F
Precip. -- in
6:57 AM 5:10 PM
Waxing Gibbous, 83% visible
Pressure 30.32 in
Visibility 10.0 miles
Clouds Overcast 4500 ft
Windchill 33 °F
Dew Point 33 °F
Humidity 70%
Rainfall 0.00 in
Snow Depth Not available.
UV 0 out of 12
Pollen .70 out of 12
Air Quality Not available.
Flu Activity Not available.
METAR KLAA 301553Z AUTO 21017KT 10SM -RA OVC045 06/01 A3031 RMK AO2 RAB47 SLP266 P0000 T00560006

More Conditions Fewer Conditions

Pressure 30.32 in
Visibility 10.0 miles
Clouds Overcast 4500 ft
Windchill 33 °F
Dew Point 33 °F
Humidity 70%
Rainfall 0.00 in
Snow Depth Not available.
UV 0 out of 12
Pollen .70 out of 12
Air Quality Not available.
Flu Activity Not available.
METAR KLAA 301553Z AUTO 21017KT 10SM -RA OVC045 06/01 A3031 RMK AO2 RAB47 SLP266 P0000 T00560006

More Conditions Fewer Conditions

10-Day Weather Forecast

Almanac

Astronomy

Jan. 30, 2015 Rise Set
Actual Time
Civil Twilight
Nautical Twilight
Astronomical Twilight
Moon
Length of Visible Light
Length of Day
Tomorrow will be .
, % of the Moon is Illuminated

Today's Extremes

State Highs State Lows

Community

WunderPhotos

Upload Photos

1,791,809 photos uploaded!

WunderBlogs® & News

Nearby

Air Quality

  Air Quality AQ Index Pollutant
Not available.

Snow Depth

Station Depth Elevation

Earthquake Activity

City Distance Mag. Time & Date
Minimum magnitude displayed is 2.5.

Coastal Water Temperatures

Place Temperature

Nearby Weather Stations